• Join FlightAware (Why Join?)
  • Login
  • US Flag 
11:22AM EDT


 

Airport Tracker/Info


-or-


 

Live Flight TrackerFlight Track Log ✈ TYR848 ✈ 02-Oct-2013 ✈ LATI / TIA - LOWW / VIE

Flight Track Log - Related Links

Times and Time Zones

All times are in EDT time to prevent confusion due to time zone crossing. See the TYR848 flight status page for this flight to view local times or setup timezone preferences in your user account.

Time Position Orientation Groundspeed Altitude Reporting Facility
EDT Latitude Longitude Course Direction KTS MPH feet Rate Location/Type
09:07AM 41.8202 19.5502 343° North  Level Estimated
09:08AM 41.9013 19.5159 343° North  Level Estimated
09:09AM 41.9824 19.4815 342° North  Level Estimated
09:10AM 42.0634 19.4470 342° North  Level Estimated
09:11AM 42.1445 19.4124 342° North  Level Estimated
09:12AM 42.2255 19.3777 342° North  Level Estimated
09:13AM 42.3065 19.3429 342° North  Level Estimated
09:14AM 42.3875 19.3081 342° North  Level Estimated
09:15AM 42.4685 19.2731 342° North  Level Estimated
09:16AM 42.5495 19.2381 342° North  Level Estimated
09:17AM 42.6305 19.2030 342° North  Level Estimated
09:18AM 42.7114 19.1677 342° North  Level Estimated
09:19AM 42.7924 19.1324 342° North  Level Estimated
09:20AM 42.8733 19.0970 342° North  Level Estimated
09:21AM 42.9543 19.0615 342° North  Level Estimated
09:22AM 43.0352 19.0259 342° North  Level Estimated
09:23AM 43.1161 18.9902 342° North  Level Estimated
09:24AM 43.1970 18.9545 342° North  Level Estimated
09:25AM 43.2779 18.9186 342° North  Level Estimated
09:26AM 43.3587 18.8826 342° North  Level Estimated
09:27AM 43.4396 18.8465 342° North  Level Estimated
09:28AM 43.5205 18.8104 342° North  Level Estimated
09:29AM 43.6013 18.7741 342° North  Level Estimated
09:30AM 43.6821 18.7378 342° North  Level Estimated
09:31AM 43.7630 18.7013 342° North  Level Estimated
09:32AM 43.8438 18.6647 342° North  Level Estimated
09:33AM 43.9245 18.6281 342° North  Level Estimated
09:34AM 44.0053 18.5913 342° North  Level Estimated
09:35AM 44.0861 18.5545 342° North  Level Estimated
09:36AM 44.1669 18.5175 342° North  Level Estimated
09:37AM 44.2476 18.4805 342° North  Level Estimated
09:38AM 44.3284 18.4433 342° North  Level Estimated
09:39AM 44.4091 18.4060 342° North  Level Estimated
09:40AM 44.4898 18.3687 342° North  Level Estimated
09:41AM 44.5705 18.3312 342° North  Level Estimated
09:42AM 44.6512 18.2936 342° North  Level Estimated
09:43AM 44.7318 18.2560 342° North  Level Estimated
09:44AM 44.8125 18.2182 342° North  Level Estimated
09:45AM 44.8932 18.1803 342° North  Level Estimated
09:46AM 44.9738 18.1423 342° North  Level Estimated
09:47AM 45.0544 18.1042 342° North  Level Estimated
09:48AM 45.1350 18.0660 342° North  Level Estimated
09:49AM 45.2156 18.0277 341° North  Level Estimated
09:50AM 45.2962 17.9893 341° North  Level Estimated
09:51AM 45.3768 17.9507 341° North  Level Estimated
09:52AM 45.4573 17.9121 341° North  Level Estimated
09:53AM 45.5379 17.8733 341° North  Level Estimated
09:54AM 45.6184 17.8345 341° North  Level Estimated
09:55AM 45.6989 17.7955 341° North  Level Estimated
09:56AM 45.7794 17.7564 341° North  Level Estimated
09:57AM 45.8599 17.7172 341° North  Level Estimated
09:58AM 45.9404 17.6779 341° North  Level Estimated
09:59AM 46.0209 17.6384 341° North  Level Estimated
10:00AM 46.1013 17.5989 341° North  Level Estimated
10:01AM 46.1818 17.5592 341° North  Level Estimated
10:02AM 46.2622 17.5194 341° North  Level Estimated
10:03AM 46.3426 17.4796 341° North  Level Estimated
10:04AM 46.4230 17.4396 341° North  Level Estimated
10:05AM 46.5034 17.3994 341° North  Level Estimated
10:06AM 46.5838 17.3592 341° North  Level Estimated
10:07AM 46.6641 17.3188 341° North  Level Estimated
10:08AM 46.7445 17.2783 341° North  Level Estimated
10:09AM 46.8248 17.2377 341° North  Level Estimated
10:10AM 46.9051 17.1970 341° North  Level Estimated
10:11AM 46.9854 17.1561 341° North  Level Estimated
10:12AM 47.0657 17.1151 341° North  Level Estimated
10:13AM 47.1460 17.0740 341° North  Level Estimated
10:14AM 47.2262 17.0328 341° North  Level Estimated
10:15AM 47.3064 16.9915 341° North  Level Estimated
10:16AM 47.3867 16.9500 341° North  Level Estimated
10:17AM 47.4669 16.9084 341° North  Level Estimated
10:18AM 47.5471 16.8666 341° North  Level Estimated
10:19AM 47.6273 16.8248 341° North  Level Estimated
10:20AM 47.7074 16.7828 341° North  Level Estimated
10:21AM 47.7876 16.7407 341° North  Level Estimated
10:22AM 47.8677 16.6985 341° North  Level Estimated
10:23AM 47.9478 16.6561 340° North  Level Estimated
10:24AM 48.0279 16.6136 340° North  Level Estimated
10:25AM 48.1080 16.5709 340° North  Level Estimated
10:26AM 48.1103 16.5697 340° North  Level Estimated
10:27AM 48.1103 16.5697 146° Southeast  Level Estimated
10:28AM 48.1103 16.5697 146° Southeast  Level Estimated
10:29AM 48.1103 16.5697 146° Southeast  Level Estimated
10:30AM 48.1103 16.5697 146° Southeast  Level Estimated
10:31AM 48.1103 16.5697 146° Southeast  Level Estimated
10:32AM 48.1103 16.5697 146° Southeast  Level Estimated